Time;durP1;ratioP1;P1;durP2;ratioP2;P2;SDS_P1;SDS_P2;PMS_P1;PMS_P2;Temp;Humidity;BMP_temperature;BMP_pressure;BME280_temperature;BME280_humidity;BME280_pressure;Samples;Min_cycle;Max_cycle;Signal;HPM_P1;HPM_P2
2022/03/05 00:00:45;;;;;;;;;;;1.50;91.00;;;;;;5102766;28;19961;-80
2022/03/05 00:03:11;;;;;;;;;;;1.50;91.00;;;;;;5102290;28;20518;-79
2022/03/05 00:05:37;;;;;;;;;;;1.40;91.10;;;;;;5102401;28;20378;-80
2022/03/05 00:08:03;;;;;;;;;;;1.40;91.20;;;;;;5102467;28;19923;-79
2022/03/05 00:10:29;;;;;;;;;;;1.30;91.40;;;;;;5102195;28;19947;-80
2022/03/05 00:12:54;;;;;;;;;;;1.70;91.50;;;;;;5102025;28;19911;-79
2022/03/05 00:15:23;;;;;;;;;;;1.30;91.60;;;;;;5103082;28;19975;-79
2022/03/05 00:17:50;;;;;;;;;;;1.30;91.60;;;;;;5102847;28;19915;-79
2022/03/05 00:20:16;;;;;;;;;;;1.30;91.60;;;;;;5103020;28;19908;-80
2022/03/05 00:22:41;;;;;;;;;;;1.30;91.60;;;;;;5103067;28;20026;-79
2022/03/05 00:25:07;;;;;;;;;;;2.60;92.00;;;;;;5102841;28;20341;-79
2022/03/05 00:27:33;;;;;;;;;;;1.20;91.80;;;;;;5102779;28;19908;-80
2022/03/05 00:29:59;;;;;;;;;;;1.10;91.80;;;;;;5103161;28;19923;-80
2022/03/05 00:32:24;;;;;;;;;;;1.20;92.00;;;;;;5110679;28;19912;-79
2022/03/05 00:34:50;;;;;;;;;;;1.10;92.00;;;;;;5110724;28;20179;-80
2022/03/05 00:37:15;;;;;;;;;;;1.10;92.10;;;;;;5111036;28;20389;-79
2022/03/05 00:39:41;;;;;;;;;;;1.10;92.10;;;;;;5111462;28;19912;-79
2022/03/05 00:42:07;;;;;;;;;;;1.10;92.20;;;;;;5103824;28;19985;-79
2022/03/05 00:44:32;;;;;;;;;;;1.00;92.30;;;;;;5102087;28;19955;-79
2022/03/05 00:46:58;;;;;;;;;;;1.00;92.30;;;;;;5102536;28;20003;-78
2022/03/05 00:49:24;;;;;;;;;;;1.00;92.20;;;;;;5084199;28;20488;-79
2022/03/05 00:51:50;;;;;;;;;;;1.60;92.40;;;;;;5101362;28;19908;-79
2022/03/05 00:54:16;;;;;;;;;;;1.00;92.40;;;;;;5101596;28;20085;-79
2022/03/05 00:56:41;;;;;;;;;;;1.00;92.50;;;;;;5083228;28;19916;-79
2022/03/05 00:59:07;;;;;;;;;;;0.90;92.60;;;;;;5101387;28;19907;-79
2022/03/05 01:01:33;;;;;;;;;;;1.70;92.80;;;;;;5101407;28;20360;-79
2022/03/05 01:03:58;;;;;;;;;;;0.90;92.70;;;;;;5088601;28;19972;-79
2022/03/05 01:06:24;;;;;;;;;;;0.80;93.00;;;;;;5107302;28;20015;-80
2022/03/05 01:08:49;;;;;;;;;;;0.80;92.90;;;;;;5101225;28;20022;-79
2022/03/05 01:11:18;;;;;;;;;;;0.80;93.10;;;;;;5101835;28;19915;-80
2022/03/05 01:13:44;;;;;;;;;;;0.80;93.40;;;;;;5082797;28;19915;-79
2022/03/05 01:16:09;;;;;;;;;;;2.10;93.70;;;;;;5101020;28;19930;-80
2022/03/05 01:18:35;;;;;;;;;;;0.70;93.60;;;;;;5101360;28;20457;-79
2022/03/05 01:21:00;;;;;;;;;;;0.80;93.70;;;;;;5101279;28;20511;-79
2022/03/05 01:23:26;;;;;;;;;;;0.60;93.90;;;;;;5100602;28;19938;-79
2022/03/05 01:25:52;;;;;;;;;;;0.50;94.10;;;;;;5100889;28;19912;-79
2022/03/05 01:28:17;;;;;;;;;;;0.50;94.10;;;;;;5100751;28;20522;-80
2022/03/05 01:30:43;;;;;;;;;;;0.40;94.10;;;;;;5082609;28;20382;-79
2022/03/05 01:33:09;;;;;;;;;;;0.40;94.20;;;;;;5101143;28;19915;-79
2022/03/05 01:35:34;;;;;;;;;;;0.40;94.30;;;;;;5100745;28;19970;-79
2022/03/05 01:38:00;;;;;;;;;;;0.40;94.20;;;;;;5100745;28;20421;-79
2022/03/05 01:40:25;;;;;;;;;;;0.40;94.30;;;;;;5100437;28;19907;-80
2022/03/05 01:42:51;;;;;;;;;;;0.60;94.40;;;;;;5104496;28;19915;-80
2022/03/05 01:45:16;;;;;;;;;;;0.40;94.30;;;;;;5111819;28;19923;-79
2022/03/05 01:47:42;;;;;;;;;;;0.40;94.30;;;;;;5112996;28;19914;-80
2022/03/05 01:50:08;;;;;;;;;;;0.40;94.30;;;;;;5093458;28;20144;-79
2022/03/05 01:52:34;;;;;;;;;;;0.50;94.40;;;;;;5112505;28;19947;-79
2022/03/05 01:55:01;;;;;;;;;;;2.10;94.80;;;;;;5091653;28;20133;-79
2022/03/05 01:57:26;;;;;;;;;;;0.60;94.30;;;;;;5100744;28;19947;-79
2022/03/05 01:59:52;;;;;;;;;;;0.60;94.10;;;;;;5100311;28;20440;-80
2022/03/05 02:02:18;;;;;;;;;;;0.70;94.00;;;;;;5100301;28;19912;-79
2022/03/05 02:04:43;;;;;;;;;;;0.70;94.10;;;;;;5100440;28;19908;-79
2022/03/05 02:07:09;;;;;;;;;;;0.70;94.20;;;;;;5100463;28;19908;-79
2022/03/05 02:09:35;;;;;;;;;;;0.70;94.20;;;;;;5100312;28;19945;-79
2022/03/05 02:12:01;;;;;;;;;;;0.80;94.10;;;;;;5100051;28;20180;-79
2022/03/05 02:14:27;;;;;;;;;;;0.80;94.10;;;;;;5099806;28;19908;-80
2022/03/05 02:16:53;;;;;;;;;;;0.80;94.00;;;;;;5099732;28;20306;-79
2022/03/05 02:19:19;;;;;;;;;;;0.80;93.80;;;;;;5100220;28;20462;-78
2022/03/05 02:21:46;;;;;;;;;;;0.80;93.80;;;;;;5100311;28;20009;-79
2022/03/05 02:24:11;;;;;;;;;;;0.80;93.90;;;;;;5081176;28;19908;-79
2022/03/05 02:26:37;;;;;;;;;;;0.90;93.80;;;;;;5099816;28;20075;-79
2022/03/05 02:29:02;;;;;;;;;;;0.90;93.80;;;;;;5099546;28;19943;-79
2022/03/05 02:31:28;;;;;;;;;;;1.00;93.90;;;;;;5099917;28;19919;-79
2022/03/05 02:33:55;;;;;;;;;;;1.00;93.80;;;;;;5100340;28;20177;-79
2022/03/05 02:36:22;;;;;;;;;;;1.00;93.80;;;;;;5100637;28;20188;-79
2022/03/05 02:38:48;;;;;;;;;;;1.10;93.80;;;;;;5101036;28;20610;-79
2022/03/05 02:41:14;;;;;;;;;;;1.10;93.70;;;;;;5099697;28;20354;-80
2022/03/05 02:43:39;;;;;;;;;;;1.10;93.70;;;;;;5100303;28;19911;-79
2022/03/05 02:46:05;;;;;;;;;;;1.10;93.70;;;;;;5099277;28;19920;-79
2022/03/05 02:48:33;;;;;;;;;;;1.10;93.70;;;;;;5100009;28;19916;-79
2022/03/05 02:50:59;;;;;;;;;;;1.10;93.70;;;;;;5099393;28;20146;-79
2022/03/05 02:53:24;;;;;;;;;;;1.10;93.70;;;;;;5099730;28;20442;-79
2022/03/05 02:55:50;;;;;;;;;;;1.10;93.80;;;;;;5099800;28;19912;-79
2022/03/05 02:58:15;;;;;;;;;;;1.10;93.70;;;;;;5099901;28;19915;-79
2022/03/05 03:00:41;;;;;;;;;;;1.10;93.80;;;;;;5100002;28;19908;-79
2022/03/05 03:03:07;;;;;;;;;;;1.10;93.80;;;;;;5082466;28;20181;-79
2022/03/05 03:05:32;;;;;;;;;;;1.10;93.70;;;;;;5100306;28;20135;-79
2022/03/05 03:07:58;;;;;;;;;;;1.10;93.80;;;;;;5100360;28;20010;-79
2022/03/05 03:10:23;;;;;;;;;;;1.80;94.00;;;;;;5100629;28;20328;-79
2022/03/05 03:12:49;;;;;;;;;;;1.10;93.80;;;;;;5081303;28;20402;-79
2022/03/05 03:15:15;;;;;;;;;;;1.10;93.80;;;;;;5109239;28;19938;-79
2022/03/05 03:17:45;;;;;;;;;;;1.10;93.90;;;;;;5107487;28;20073;-79
2022/03/05 03:20:12;;;;;;;;;;;1.10;93.90;;;;;;5081411;28;20429;-79
2022/03/05 03:22:37;;;;;;;;;;;1.10;93.90;;;;;;5100250;28;20010;-79
2022/03/05 03:25:03;;;;;;;;;;;1.20;93.90;;;;;;5100286;28;20101;-80
2022/03/05 03:27:29;;;;;;;;;;;1.10;93.70;;;;;;5100047;28;19911;-80
2022/03/05 03:29:54;;;;;;;;;;;1.20;93.70;;;;;;5102129;28;19920;-79
2022/03/05 03:32:20;;;;;;;;;;;1.20;93.60;;;;;;5103492;28;20384;-80
2022/03/05 03:34:45;;;;;;;;;;;1.70;93.70;;;;;;5104341;28;19907;-79
2022/03/05 03:37:11;;;;;;;;;;;2.60;93.90;;;;;;5104069;28;19907;-79
2022/03/05 03:39:36;;;;;;;;;;;1.40;93.60;;;;;;5103581;28;20073;-80
2022/03/05 03:42:02;;;;;;;;;;;1.20;93.50;;;;;;5084392;28;19908;-80
2022/03/05 03:44:28;;;;;;;;;;;1.20;93.40;;;;;;5104299;28;20264;-80
2022/03/05 03:46:54;;;;;;;;;;;1.10;93.40;;;;;;5108372;28;19919;-80
2022/03/05 03:49:19;;;;;;;;;;;1.10;93.50;;;;;;5091544;28;20408;-79
2022/03/05 03:51:45;;;;;;;;;;;1.20;93.60;;;;;;5107805;28;20451;-79
2022/03/05 03:54:11;;;;;;;;;;;1.40;93.70;;;;;;5106272;28;19911;-79
2022/03/05 03:56:37;;;;;;;;;;;1.10;93.60;;;;;;5103457;28;20018;-79
2022/03/05 03:59:03;;;;;;;;;;;1.10;93.50;;;;;;5103616;28;20168;-79
2022/03/05 04:01:28;;;;;;;;;;;1.60;93.60;;;;;;5085147;28;19908;-80
2022/03/05 04:03:54;;;;;;;;;;;1.10;93.60;;;;;;5084164;28;19943;-79
2022/03/05 04:06:19;;;;;;;;;;;1.10;93.70;;;;;;5102396;28;19907;-79
2022/03/05 04:08:45;;;;;;;;;;;1.10;93.70;;;;;;5102196;28;20218;-79
2022/03/05 04:11:11;;;;;;;;;;;1.20;93.60;;;;;;5102170;28;20060;-79
2022/03/05 04:13:37;;;;;;;;;;;2.00;93.70;;;;;;5102302;28;19908;-80
2022/03/05 04:16:03;;;;;;;;;;;1.10;93.40;;;;;;5102485;28;19915;-79
2022/03/05 04:18:28;;;;;;;;;;;1.10;93.50;;;;;;5102012;28;19908;-80
2022/03/05 04:20:54;;;;;;;;;;;2.40;93.90;;;;;;5083717;28;19908;-79
2022/03/05 04:23:20;;;;;;;;;;;1.10;93.60;;;;;;5102070;28;20000;-79
2022/03/05 04:25:46;;;;;;;;;;;1.30;93.70;;;;;;5101855;28;20022;-79
2022/03/05 04:28:12;;;;;;;;;;;1.10;93.90;;;;;;5101616;28;19908;-79
2022/03/05 04:30:37;;;;;;;;;;;1.10;93.80;;;;;;5101818;28;20166;-79
2022/03/05 04:33:03;;;;;;;;;;;1.00;93.80;;;;;;5102140;28;19911;-79
2022/03/05 04:35:28;;;;;;;;;;;1.00;93.80;;;;;;5101186;28;19915;-79
2022/03/05 04:37:54;;;;;;;;;;;1.00;93.80;;;;;;5101382;28;19912;-79
2022/03/05 04:40:20;;;;;;;;;;;2.00;94.30;;;;;;5100225;28;19947;-79
2022/03/05 04:42:45;;;;;;;;;;;1.00;93.90;;;;;;5101502;28;20198;-80
2022/03/05 04:45:11;;;;;;;;;;;1.80;94.30;;;;;;5101455;28;20115;-79
2022/03/05 04:47:37;;;;;;;;;;;1.00;94.20;;;;;;5101540;28;20223;-79
2022/03/05 04:50:03;;;;;;;;;;;1.00;93.60;;;;;;5101920;28;19916;-79
2022/03/05 04:52:29;;;;;;;;;;;1.00;93.70;;;;;;5101558;28;20449;-79
2022/03/05 04:54:55;;;;;;;;;;;1.00;93.80;;;;;;5101898;28;20204;-79
2022/03/05 04:57:21;;;;;;;;;;;1.00;93.80;;;;;;5101579;28;20350;-79
2022/03/05 04:59:47;;;;;;;;;;;1.10;93.60;;;;;;5101855;28;20111;-80
2022/03/05 05:02:13;;;;;;;;;;;1.50;93.70;;;;;;5101951;28;20351;-79
2022/03/05 05:04:38;;;;;;;;;;;-1.00;92.70;;;;;;5101538;28;19911;-79
2022/03/05 05:07:04;;;;;;;;;;;1.10;93.10;;;;;;5101247;28;19919;-79
2022/03/05 05:09:30;;;;;;;;;;;1.20;93.10;;;;;;5084001;28;20270;-79
2022/03/05 05:11:56;;;;;;;;;;;1.40;93.10;;;;;;5101727;28;20282;-80
2022/03/05 05:14:22;;;;;;;;;;;1.10;92.90;;;;;;5102525;28;19914;-79
2022/03/05 05:16:47;;;;;;;;;;;1.10;93.00;;;;;;5102874;28;20397;-80
2022/03/05 05:19:25;;;;;;;;;;;1.10;92.90;;;;;;5103038;28;20217;-79
2022/03/05 05:21:52;;;;;;;;;;;1.10;92.90;;;;;;5081753;28;20293;-80
2022/03/05 05:24:17;;;;;;;;;;;1.20;92.70;;;;;;5087752;28;19911;-80
2022/03/05 05:26:43;;;;;;;;;;;1.20;92.70;;;;;;5109000;28;19942;-81
2022/03/05 05:29:09;;;;;;;;;;;1.20;92.00;;;;;;5107145;28;19916;-79
2022/03/05 05:31:35;;;;;;;;;;;1.20;91.60;;;;;;5104055;28;20171;-79
2022/03/05 05:34:01;;;;;;;;;;;1.20;91.50;;;;;;5105169;28;20522;-80
2022/03/05 05:36:26;;;;;;;;;;;1.20;91.90;;;;;;5087286;28;20200;-79
2022/03/05 05:38:52;;;;;;;;;;;1.20;92.00;;;;;;5106262;28;19915;-80
2022/03/05 05:41:18;;;;;;;;;;;1.20;92.10;;;;;;5106799;28;20435;-79
2022/03/05 05:43:44;;;;;;;;;;;1.20;92.00;;;;;;5087334;28;19907;-80
2022/03/05 05:46:10;;;;;;;;;;;1.20;91.90;;;;;;5102907;28;20133;-79
2022/03/05 05:48:35;;;;;;;;;;;1.70;92.00;;;;;;5100941;28;19976;-79
2022/03/05 05:51:01;;;;;;;;;;;1.20;91.90;;;;;;5100645;28;20145;-80
2022/03/05 05:53:27;;;;;;;;;;;1.30;91.70;;;;;;5081396;28;20370;-79
2022/03/05 05:55:53;;;;;;;;;;;2.70;92.00;;;;;;5100573;28;19915;-79
2022/03/05 05:58:19;;;;;;;;;;;1.40;91.50;;;;;;5082215;28;20344;-79
2022/03/05 06:00:44;;;;;;;;;;;1.40;91.60;;;;;;5100894;28;20140;-79
2022/03/05 06:03:10;;;;;;;;;;;1.40;91.30;;;;;;5101309;28;20298;-79
2022/03/05 06:05:36;;;;;;;;;;;1.40;91.10;;;;;;5100872;28;20381;-80
2022/03/05 06:08:01;;;;;;;;;;;1.40;91.30;;;;;;5100698;28;20365;-79
2022/03/05 06:10:27;;;;;;;;;;;1.50;91.20;;;;;;5100596;28;20413;-79
2022/03/05 06:12:52;;;;;;;;;;;1.50;91.20;;;;;;5082319;28;20129;-79
2022/03/05 06:15:18;;;;;;;;;;;1.40;90.80;;;;;;5100542;28;19907;-80
2022/03/05 06:17:44;;;;;;;;;;;1.50;91.00;;;;;;5100419;28;19907;-80
2022/03/05 06:20:10;;;;;;;;;;;1.50;91.20;;;;;;5100840;28;19908;-80
2022/03/05 06:22:36;;;;;;;;;;;1.50;90.60;;;;;;5100324;28;19915;-80
2022/03/05 06:25:02;;;;;;;;;;;1.60;90.70;;;;;;5082528;28;20180;-79
2022/03/05 06:27:28;;;;;;;;;;;1.70;90.50;;;;;;5101391;28;19943;-79
2022/03/05 06:29:55;;;;;;;;;;;1.70;90.40;;;;;;5100586;28;20715;-80
2022/03/05 06:32:21;;;;;;;;;;;1.70;90.30;;;;;;5100620;28;19915;-80
2022/03/05 06:34:46;;;;;;;;;;;1.80;90.40;;;;;;5100116;28;19919;-79
2022/03/05 06:37:12;;;;;;;;;;;3.10;90.20;;;;;;5099994;28;19922;-80
2022/03/05 06:39:37;;;;;;;;;;;1.90;90.00;;;;;;5100085;28;19908;-80
2022/03/05 06:42:03;;;;;;;;;;;1.90;90.00;;;;;;5099776;28;19908;-79
2022/03/05 06:44:32;;;;;;;;;;;1.90;90.00;;;;;;5100628;28;19994;-79
2022/03/05 06:46:58;;;;;;;;;;;2.00;89.70;;;;;;5081279;28;19926;-79
2022/03/05 06:49:23;;;;;;;;;;;2.00;89.40;;;;;;5100147;28;20022;-79
2022/03/05 06:51:49;;;;;;;;;;;2.10;89.50;;;;;;5100208;28;20432;-79
2022/03/05 06:54:15;;;;;;;;;;;2.20;89.10;;;;;;5101697;28;19915;-79
2022/03/05 06:56:40;;;;;;;;;;;2.30;88.40;;;;;;5101247;28;20326;-79
2022/03/05 06:59:06;;;;;;;;;;;2.30;88.40;;;;;;5101486;28;19989;-80
2022/03/05 07:01:32;;;;;;;;;;;2.40;87.90;;;;;;5109290;28;19986;-79
2022/03/05 07:03:57;;;;;;;;;;;2.60;86.30;;;;;;5089256;28;19918;-80
2022/03/05 07:06:23;;;;;;;;;;;2.70;86.50;;;;;;5108091;28;19916;-80
2022/03/05 07:08:48;;;;;;;;;;;2.80;87.00;;;;;;5091189;28;20173;-79
2022/03/05 07:11:14;;;;;;;;;;;2.90;85.50;;;;;;5102446;28;19919;-80
2022/03/05 07:13:59;;;;;;;;;;;;;;;;;;;;;
2022/03/05 07:16:24;;;;;;;;;;;5.50;85.80;;;;;;5099839;28;19908;-80
2022/03/05 07:18:50;;;;;;;;;;;3.10;84.30;;;;;;5100094;28;19907;-79
2022/03/05 07:21:16;;;;;;;;;;;3.10;83.30;;;;;;5099554;28;19908;-79
2022/03/05 07:23:41;;;;;;;;;;;3.10;83.30;;;;;;5099778;28;20389;-79
2022/03/05 07:26:07;;;;;;;;;;;3.20;84.00;;;;;;5099667;28;19930;-79
2022/03/05 07:28:32;;;;;;;;;;;3.30;83.80;;;;;;5080445;28;19915;-80
2022/03/05 07:30:58;;;;;;;;;;;3.50;82.40;;;;;;5099755;28;19907;-79
2022/03/05 07:33:24;;;;;;;;;;;3.40;82.40;;;;;;5099566;27;20241;-80
2022/03/05 07:35:49;;;;;;;;;;;3.50;82.10;;;;;;5100323;28;20330;-79
2022/03/05 07:38:15;;;;;;;;;;;3.50;82.80;;;;;;5102905;28;19957;-79
2022/03/05 07:40:41;;;;;;;;;;;3.60;82.60;;;;;;5088908;28;19911;-80
2022/03/05 07:43:06;;;;;;;;;;;3.50;82.80;;;;;;5099938;28;20182;-79
2022/03/05 07:45:32;;;;;;;;;;;3.50;84.10;;;;;;5099502;28;19924;-79
2022/03/05 07:47:57;;;;;;;;;;;3.50;84.20;;;;;;5099387;28;20498;-79
2022/03/05 07:50:23;;;;;;;;;;;3.50;84.20;;;;;;5098761;28;20457;-79
2022/03/05 07:52:49;;;;;;;;;;;3.40;84.80;;;;;;5098609;28;20405;-79
2022/03/05 07:55:14;;;;;;;;;;;3.30;85.40;;;;;;5099095;28;19908;-79
2022/03/05 07:57:40;;;;;;;;;;;3.30;85.30;;;;;;5099044;28;19923;-79
2022/03/05 08:00:06;;;;;;;;;;;3.40;85.00;;;;;;5098524;28;19915;-79
2022/03/05 08:02:32;;;;;;;;;;;3.30;85.50;;;;;;5098691;28;19912;-80
2022/03/05 08:04:57;;;;;;;;;;;3.30;84.40;;;;;;5098712;28;20502;-79
2022/03/05 08:07:24;;;;;;;;;;;3.40;83.70;;;;;;5080145;28;19923;-80
2022/03/05 08:09:49;;;;;;;;;;;3.30;84.60;;;;;;5098591;28;19938;-80
2022/03/05 08:12:15;;;;;;;;;;;3.40;84.20;;;;;;5098326;28;20526;-80
2022/03/05 08:14:42;;;;;;;;;;;4.70;83.70;;;;;;5098826;28;20378;-79
2022/03/05 08:17:07;;;;;;;;;;;3.60;83.20;;;;;;5102027;28;19916;-79
2022/03/05 08:19:33;;;;;;;;;;;3.70;82.30;;;;;;5101978;28;20061;-79
2022/03/05 08:22:00;;;;;;;;;;;3.80;81.40;;;;;;5084022;28;19998;-79
2022/03/05 08:24:26;;;;;;;;;;;3.80;81.30;;;;;;5101910;28;20350;-79
2022/03/05 08:26:52;;;;;;;;;;;3.80;80.60;;;;;;5101933;28;19919;-79
2022/03/05 08:29:18;;;;;;;;;;;3.80;80.80;;;;;;5101763;28;20303;-79
2022/03/05 08:31:44;;;;;;;;;;;3.90;79.90;;;;;;5082953;28;20132;-80
2022/03/05 08:34:09;;;;;;;;;;;4.00;80.30;;;;;;5102035;27;20006;-79
2022/03/05 08:36:35;;;;;;;;;;;4.00;80.50;;;;;;5083398;28;20408;-79
2022/03/05 08:39:00;;;;;;;;;;;5.00;80.90;;;;;;5083081;28;20200;-80
2022/03/05 08:41:26;;;;;;;;;;;4.10;79.70;;;;;;5101336;28;20279;-79
2022/03/05 08:43:52;;;;;;;;;;;4.20;79.20;;;;;;5083388;28;19908;-79
2022/03/05 08:46:19;;;;;;;;;;;4.10;79.10;;;;;;5082789;28;20401;-79
2022/03/05 08:48:45;;;;;;;;;;;4.10;79.10;;;;;;5101729;28;20121;-79
2022/03/05 08:51:11;;;;;;;;;;;4.10;79.70;;;;;;5101857;28;19930;-79
2022/03/05 08:53:36;;;;;;;;;;;4.00;80.00;;;;;;5101779;28;19911;-79
2022/03/05 08:56:02;;;;;;;;;;;4.00;79.00;;;;;;5101986;28;20049;-79
2022/03/05 08:58:28;;;;;;;;;;;4.00;77.10;;;;;;5101416;28;20001;-79
2022/03/05 09:00:53;;;;;;;;;;;3.90;75.00;;;;;;5101592;28;20399;-79
2022/03/05 09:03:19;;;;;;;;;;;3.80;75.20;;;;;;5101002;28;19908;-79
2022/03/05 09:05:46;;;;;;;;;;;3.80;75.70;;;;;;5101251;28;20135;-79
2022/03/05 09:08:12;;;;;;;;;;;3.70;75.70;;;;;;5101362;28;19912;-79
2022/03/05 09:10:37;;;;;;;;;;;3.70;76.10;;;;;;5100802;28;19916;-79
2022/03/05 09:13:05;;;;;;;;;;;3.60;76.70;;;;;;5083079;28;20435;-79
2022/03/05 09:15:30;;;;;;;;;;;3.70;76.40;;;;;;5101359;28;19908;-79
2022/03/05 09:17:56;;;;;;;;;;;3.70;76.60;;;;;;5082298;28;19989;-78
2022/03/05 09:20:21;;;;;;;;;;;3.70;76.30;;;;;;5101505;28;19908;-79
2022/03/05 09:22:47;;;;;;;;;;;3.70;75.30;;;;;;5101356;28;19908;-79
2022/03/05 09:25:13;;;;;;;;;;;3.70;75.50;;;;;;5101442;28;20166;-79
2022/03/05 09:27:38;;;;;;;;;;;3.70;74.70;;;;;;5100884;28;20301;-79
2022/03/05 09:30:05;;;;;;;;;;;3.70;74.60;;;;;;5101251;28;19982;-79
2022/03/05 09:32:30;;;;;;;;;;;3.70;75.50;;;;;;5101629;28;19969;-79
2022/03/05 09:34:59;;;;;;;;;;;3.70;74.70;;;;;;5101143;28;19912;-79
2022/03/05 09:37:29;;;;;;;;;;;3.80;73.70;;;;;;5101117;28;19965;-79
2022/03/05 09:39:58;;;;;;;;;;;3.80;72.90;;;;;;5101033;28;19992;-80
2022/03/05 09:42:24;;;;;;;;;;;3.80;72.90;;;;;;5083466;28;19919;-79
2022/03/05 09:44:49;;;;;;;;;;;3.80;72.40;;;;;;5101638;28;19920;-79
2022/03/05 09:47:15;;;;;;;;;;;3.80;72.90;;;;;;5101622;28;20176;-79
2022/03/05 09:49:41;;;;;;;;;;;3.90;72.30;;;;;;5102021;28;19923;-79
2022/03/05 09:52:07;;;;;;;;;;;3.90;72.10;;;;;;5090066;28;20252;-79
2022/03/05 09:54:33;;;;;;;;;;;3.90;71.20;;;;;;5105548;28;20184;-79
2022/03/05 09:56:59;;;;;;;;;;;4.10;71.30;;;;;;5101812;28;19908;-79
2022/03/05 09:59:25;;;;;;;;;;;4.10;71.40;;;;;;5101898;28;19922;-79
2022/03/05 10:01:51;;;;;;;;;;;4.20;71.60;;;;;;5101967;28;19907;-79
2022/03/05 10:04:21;;;;;;;;;;;4.30;70.00;;;;;;5102104;27;19912;-79
2022/03/05 10:07:04;;;;;;;;;;;4.50;69.80;;;;;;5102509;28;19911;-79
2022/03/05 10:09:30;;;;;;;;;;;4.50;66.40;;;;;;5102831;28;20428;-79
2022/03/05 10:11:55;;;;;;;;;;;4.40;65.50;;;;;;5102916;28;19907;-79
2022/03/05 10:14:21;;;;;;;;;;;4.40;66.50;;;;;;5103658;28;19908;-79
2022/03/05 10:16:47;;;;;;;;;;;4.40;66.80;;;;;;5107040;28;19908;-79
2022/03/05 10:19:19;;;;;;;;;;;4.40;68.30;;;;;;5109374;28;20398;-79
2022/03/05 10:21:55;;;;;;;;;;;4.50;66.30;;;;;;5109711;28;19912;-79
2022/03/05 10:24:29;;;;;;;;;;;4.60;65.10;;;;;;5089191;28;19908;-79
2022/03/05 10:26:55;;;;;;;;;;;4.70;64.20;;;;;;5103458;28;19920;-79
2022/03/05 10:29:22;;;;;;;;;;;4.80;65.30;;;;;;5104729;28;19915;-79
2022/03/05 10:32:04;;;;;;;;;;;4.90;64.10;;;;;;5101579;28;19947;-79
2022/03/05 10:34:42;;;;;;;;;;;5.00;63.00;;;;;;5101243;27;19973;-80
2022/03/05 10:37:08;;;;;;;;;;;5.20;61.40;;;;;;5100955;28;19915;-79
2022/03/05 10:39:34;;;;;;;;;;;5.30;60.80;;;;;;5101425;28;19962;-79
2022/03/05 10:41:59;;;;;;;;;;;5.30;61.70;;;;;;5100800;28;19932;-80
2022/03/05 10:44:25;;;;;;;;;;;5.30;60.50;;;;;;5100882;28;19918;-79
2022/03/05 10:46:58;;;;;;;;;;;5.20;61.50;;;;;;5100294;28;20008;-79
2022/03/05 10:49:23;;;;;;;;;;;5.20;62.20;;;;;;5100359;28;20384;-79
2022/03/05 10:52:03;;;;;;;;;;;5.30;63.00;;;;;;5100367;28;19908;-79
2022/03/05 10:54:37;;;;;;;;;;;5.30;63.00;;;;;;5099626;28;20224;-80
2022/03/05 10:57:18;;;;;;;;;;;5.40;61.30;;;;;;5099941;28;19939;-79
2022/03/05 10:59:44;;;;;;;;;;;6.20;61.50;;;;;;5081232;28;19908;-80
2022/03/05 11:02:11;;;;;;;;;;;5.50;62.40;;;;;;5099644;28;20006;-79
2022/03/05 11:04:37;;;;;;;;;;;5.70;63.20;;;;;;5099164;27;19912;-80
2022/03/05 11:07:03;;;;;;;;;;;5.80;61.50;;;;;;5099370;28;19912;-79
2022/03/05 11:09:32;;;;;;;;;;;5.80;60.70;;;;;;5099349;28;19920;-80
2022/03/05 11:11:59;;;;;;;;;;;5.90;60.00;;;;;;5099995;28;19908;-80
2022/03/05 11:14:25;;;;;;;;;;;6.00;59.40;;;;;;5081343;28;20281;-79
2022/03/05 11:16:50;;;;;;;;;;;5.90;59.90;;;;;;5099952;28;20202;-79
2022/03/05 11:19:16;;;;;;;;;;;5.90;59.90;;;;;;5082633;28;19998;-79
2022/03/05 11:21:42;;;;;;;;;;;7.90;61.70;;;;;;5081911;28;20277;-80
2022/03/05 11:24:11;;;;;;;;;;;5.80;60.10;;;;;;5100343;28;19918;-79
2022/03/05 11:26:37;;;;;;;;;;;5.70;59.40;;;;;;5100287;28;19969;-79
2022/03/05 11:29:03;;;;;;;;;;;5.60;61.00;;;;;;5099506;28;20515;-79
2022/03/05 11:31:35;;;;;;;;;;;6.80;62.00;;;;;;5082048;28;19914;-79
2022/03/05 11:34:31;;;;;;;;;;;5.60;60.30;;;;;;5100634;28;19922;-79
2022/03/05 11:36:56;;;;;;;;;;;5.60;60.10;;;;;;4981248;28;20324;-79
2022/03/05 11:39:28;;;;;;;;;;;5.60;59.00;;;;;;4997195;28;19909;-79
2022/03/05 11:42:01;;;;;;;;;;;5.80;57.50;;;;;;4997441;28;19971;-80
2022/03/05 11:44:28;;;;;;;;;;;5.90;56.00;;;;;;4981970;28;19916;-79
2022/03/05 11:47:12;;;;;;;;;;;5.90;53.40;;;;;;4998590;28;19964;-79
2022/03/05 11:49:58;;;;;;;;;;;5.90;53.90;;;;;;4998389;28;19918;-79
2022/03/05 11:52:39;;;;;;;;;;;5.90;54.70;;;;;;4998485;28;20346;-80
2022/03/05 11:55:10;;;;;;;;;;;5.80;54.10;;;;;;5003111;28;19945;-79
2022/03/05 11:57:36;;;;;;;;;;;5.50;57.70;;;;;;5003405;28;19967;-80
2022/03/05 12:00:03;;;;;;;;;;;5.50;60.20;;;;;;5004254;28;19910;-79
2022/03/05 12:02:42;;;;;;;;;;;5.50;59.60;;;;;;4993209;28;20015;-79
2022/03/05 12:05:08;;;;;;;;;;;5.40;58.40;;;;;;5005964;28;20133;-79
2022/03/05 12:07:40;;;;;;;;;;;5.20;58.90;;;;;;5003419;28;20456;-80
2022/03/05 12:10:13;;;;;;;;;;;5.10;61.70;;;;;;5003765;28;19921;-79
2022/03/05 12:12:58;;;;;;;;;;;5.10;62.70;;;;;;5023564;28;19969;-79
2022/03/05 12:15:24;;;;;;;;;;;5.10;62.50;;;;;;5105722;28;19964;-79
2022/03/05 12:17:51;;;;;;;;;;;5.00;62.60;;;;;;5110401;28;19907;-78
2022/03/05 12:20:20;;;;;;;;;;;4.80;62.70;;;;;;5112874;28;19908;-80
2022/03/05 12:22:47;;;;;;;;;;;4.80;63.90;;;;;;5112274;28;19983;-79
2022/03/05 12:25:12;;;;;;;;;;;4.70;65.00;;;;;;5111795;28;20109;-80
2022/03/05 12:27:43;;;;;;;;;;;4.60;65.00;;;;;;5105990;28;20409;-80
2022/03/05 12:30:11;;;;;;;;;;;4.60;66.20;;;;;;5102376;28;19947;-79
2022/03/05 12:32:37;;;;;;;;;;;4.50;66.40;;;;;;5102911;28;19943;-79
2022/03/05 12:35:06;;;;;;;;;;;4.50;67.00;;;;;;5084448;28;19950;-79
2022/03/05 12:37:32;;;;;;;;;;;4.40;67.20;;;;;;5084537;28;19973;-80
2022/03/05 12:39:58;;;;;;;;;;;4.30;67.00;;;;;;5102085;28;20154;-80
2022/03/05 12:42:26;;;;;;;;;;;4.30;66.90;;;;;;5103298;28;20204;-80
2022/03/05 12:44:54;;;;;;;;;;;4.30;67.80;;;;;;5080961;28;19912;-79
2022/03/05 12:47:20;;;;;;;;;;;4.30;69.40;;;;;;5081200;28;19909;-79
2022/03/05 12:49:45;;;;;;;;;;;4.40;69.20;;;;;;5081431;28;19920;-79
2022/03/05 12:52:16;;;;;;;;;;;4.60;69.40;;;;;;5082954;28;19973;-79
2022/03/05 12:54:45;;;;;;;;;;;4.80;67.10;;;;;;5083064;28;19946;-79
2022/03/05 12:57:12;;;;;;;;;;;5.00;66.50;;;;;;5081774;28;20145;-79
2022/03/05 12:59:41;;;;;;;;;;;5.20;64.90;;;;;;5083216;28;19935;-79
2022/03/05 13:02:06;;;;;;;;;;;5.40;63.20;;;;;;5082919;28;19908;-79
2022/03/05 13:04:35;;;;;;;;;;;5.50;63.00;;;;;;5084655;28;19992;-80
2022/03/05 13:07:01;;;;;;;;;;;5.60;62.30;;;;;;5083676;28;19916;-79
2022/03/05 13:09:28;;;;;;;;;;;5.60;59.70;;;;;;5080916;28;20351;-79
2022/03/05 13:11:54;;;;;;;;;;;5.60;59.40;;;;;;5081376;28;19908;-79
2022/03/05 13:14:20;;;;;;;;;;;5.50;60.10;;;;;;5083683;28;20587;-79
2022/03/05 13:16:48;;;;;;;;;;;5.50;61.20;;;;;;5087110;28;20270;-79
2022/03/05 13:19:14;;;;;;;;;;;5.50;60.30;;;;;;5086412;28;19908;-79
2022/03/05 13:21:43;;;;;;;;;;;5.40;61.30;;;;;;5084340;28;20288;-79
2022/03/05 13:24:10;;;;;;;;;;;5.30;61.70;;;;;;5088143;28;20002;-79
2022/03/05 13:26:37;;;;;;;;;;;5.20;63.10;;;;;;5093742;28;19987;-80
2022/03/05 13:29:04;;;;;;;;;;;5.20;65.80;;;;;;5093606;28;19916;-79
2022/03/05 13:31:30;;;;;;;;;;;5.20;66.20;;;;;;5096605;28;19919;-80
2022/03/05 13:33:56;;;;;;;;;;;5.20;67.00;;;;;;5090108;28;19943;-80
2022/03/05 13:36:22;;;;;;;;;;;5.30;68.10;;;;;;5084210;28;19996;-79
2022/03/05 13:38:49;;;;;;;;;;;5.40;69.40;;;;;;5081742;28;19943;-79
2022/03/05 13:41:41;;;;;;;;;;;5.60;68.60;;;;;;5083173;28;20383;-79
2022/03/05 13:44:16;;;;;;;;;;;5.70;66.10;;;;;;5080321;28;19915;-80
2022/03/05 13:46:44;;;;;;;;;;;5.90;65.80;;;;;;5103168;28;20146;-79
2022/03/05 13:49:14;;;;;;;;;;;6.00;64.80;;;;;;5104025;28;19957;-79
2022/03/05 13:51:44;;;;;;;;;;;6.10;64.90;;;;;;5085317;28;20425;-79
2022/03/05 13:54:09;;;;;;;;;;;6.10;64.50;;;;;;5085498;28;20623;-80
2022/03/05 13:56:50;;;;;;;;;;;6.00;64.10;;;;;;5104876;28;19959;-79
2022/03/05 13:59:20;;;;;;;;;;;5.90;64.20;;;;;;5103912;28;19923;-80
2022/03/05 14:01:52;;;;;;;;;;;5.80;65.10;;;;;;5104915;28;19970;-79
2022/03/05 14:04:19;;;;;;;;;;;5.60;65.40;;;;;;5104374;28;19912;-79
2022/03/05 14:06:49;;;;;;;;;;;5.50;65.60;;;;;;5102375;28;19916;-79
2022/03/05 14:09:41;;;;;;;;;;;5.20;64.60;;;;;;5102391;28;19919;-79
2022/03/05 14:12:13;;;;;;;;;;;5.00;66.00;;;;;;5083511;28;19946;-80
2022/03/05 14:14:50;;;;;;;;;;;4.90;68.10;;;;;;5108263;28;19953;-79
2022/03/05 14:17:26;;;;;;;;;;;4.70;67.90;;;;;;5105251;28;20279;-79
2022/03/05 14:20:03;;;;;;;;;;;4.60;69.40;;;;;;5101872;28;19939;-79
2022/03/05 14:22:35;;;;;;;;;;;4.50;69.30;;;;;;5101216;28;20401;-80
2022/03/05 14:25:00;;;;;;;;;;;4.40;69.70;;;;;;5100878;28;19915;-80
2022/03/05 14:27:26;;;;;;;;;;;4.40;70.80;;;;;;5100683;28;19908;-79
2022/03/05 14:29:52;;;;;;;;;;;4.40;70.60;;;;;;5081412;28;19982;-79